Time;durP1;ratioP1;P1;durP2;ratioP2;P2;SDS_P1;SDS_P2;PMS_P1;PMS_P2;Temp;Humidity;BMP_temperature;BMP_pressure;BME280_temperature;BME280_humidity;BME280_pressure;Samples;Min_cycle;Max_cycle;Signal;HPM_P1;HPM_P2
2023/04/05 00:00:06;;;;;;;7.33;2.93;;;4.40;82.40;;;;;;10381906;28;20680;-64
2023/04/05 00:05:07;;;;;;;5.97;3.17;;;4.30;83.30;;;;;;10379176;28;20221;-65
2023/04/05 00:10:08;;;;;;;6.87;3.07;;;4.20;84.10;;;;;;10376883;28;20665;-66
2023/04/05 00:15:09;;;;;;;5.00;3.00;;;4.10;84.50;;;;;;10413868;28;20220;-66
2023/04/05 00:20:10;;;;;;;4.23;2.80;;;4.00;84.70;;;;;;10389237;28;20212;-66
2023/04/05 00:25:12;;;;;;;3.37;2.70;;;3.90;86.10;;;;;;10386246;28;20199;-67
2023/04/05 00:30:19;;;;;;;6.17;3.00;;;3.90;86.40;;;;;;10390972;28;20232;-66
2023/04/05 00:35:20;;;;;;;4.67;3.00;;;3.80;86.60;;;;;;10396513;28;20698;-66
2023/04/05 00:40:20;;;;;;;7.17;2.93;;;3.80;86.80;;;;;;10393292;28;20180;-69
2023/04/05 00:45:21;;;;;;;6.97;3.30;;;3.80;87.20;;;;;;10424671;28;20282;-67
2023/04/05 00:50:23;;;;;;;5.73;3.37;;;3.90;87.20;;;;;;10394673;28;20209;-67
2023/04/05 00:55:25;;;;;;;6.10;3.60;;;3.90;87.60;;;;;;10392927;28;20221;-67
2023/04/05 01:00:29;;;;;;;4.33;3.20;;;3.90;88.50;;;;;;10420507;28;20228;-66
2023/04/05 01:05:59;;;;;;;5.63;3.17;;;3.90;89.00;;;;;;10389426;28;20346;-66
2023/04/05 01:11:04;;;;;;;6.10;3.37;;;3.90;89.10;;;;;;10392157;28;20321;-66
2023/04/05 01:16:05;;;;;;;4.47;3.10;;;3.90;89.20;;;;;;10393246;28;20209;-66
2023/04/05 01:21:24;;;;;;;6.50;3.70;;;3.90;89.80;;;;;;10393879;28;20254;-68
2023/04/05 01:26:43;;;;;;;5.87;3.20;;;3.80;90.20;;;;;;10391983;28;20299;-66
2023/04/05 01:32:00;;;;;;;4.77;3.73;;;3.70;90.40;;;;;;10383107;28;20299;-65
2023/04/05 01:37:07;;;;;;;6.33;3.53;;;3.60;90.90;;;;;;10388524;28;20232;-66
2023/04/05 01:42:09;;;;;;;5.13;3.30;;;3.40;91.40;;;;;;10389161;28;20239;-65
2023/04/05 01:47:09;;;;;;;7.70;4.13;;;3.30;91.80;;;;;;10389168;28;20241;-65
2023/04/05 01:52:10;;;;;;;5.37;3.60;;;3.30;92.00;;;;;;10392656;28;20746;-65
2023/04/05 01:57:11;;;;;;;7.03;3.53;;;3.30;92.20;;;;;;10393286;28;20221;-64
2023/04/05 02:02:11;;;;;;;5.97;3.30;;;3.20;92.40;;;;;;10387751;28;20247;-65
2023/04/05 02:07:14;;;;;;;6.97;4.40;;;3.10;92.70;;;;;;10392028;28;20223;-65
2023/04/05 02:12:15;;;;;;;5.40;3.50;;;3.10;93.00;;;;;;10391738;28;20846;-65
2023/04/05 02:17:16;;;;;;;6.20;3.07;;;3.00;93.30;;;;;;10417914;28;20232;-65
2023/04/05 02:22:17;;;;;;;5.20;3.03;;;3.00;93.40;;;;;;10411440;28;20225;-65
2023/04/05 02:27:18;;;;;;;6.83;3.57;;;3.00;93.80;;;;;;10392258;28;20307;-66
2023/04/05 02:32:19;;;;;;;5.00;3.40;;;2.90;94.00;;;;;;10388128;28;20222;-64
2023/04/05 02:37:20;;;;;;;4.53;3.33;;;2.90;94.10;;;;;;10381085;28;20228;-67
2023/04/05 02:42:20;;;;;;;4.27;3.27;;;2.80;94.20;;;;;;10386230;28;20221;-65
2023/04/05 02:47:21;;;;;;;5.93;3.53;;;2.80;94.30;;;;;;10386301;28;20221;-65
2023/04/05 02:52:22;;;;;;;4.67;3.13;;;2.80;94.50;;;;;;10416146;28;20601;-65
2023/04/05 02:57:22;;;;;;;5.07;3.17;;;2.80;94.70;;;;;;10389906;28;20300;-65
2023/04/05 03:02:23;;;;;;;4.43;3.40;;;2.70;94.60;;;;;;10391382;28;20273;-64
2023/04/05 03:07:24;;;;;;;6.97;3.53;;;2.60;94.60;;;;;;10393115;28;20235;-65
2023/04/05 03:12:24;;;;;;;6.30;3.30;;;2.50;94.90;;;;;;10391291;28;20231;-66
2023/04/05 03:17:25;;;;;;;7.87;3.93;;;2.50;95.00;;;;;;10386576;28;20217;-66
2023/04/05 03:22:26;;;;;;;5.77;3.37;;;2.50;95.00;;;;;;10421905;28;20726;-67
2023/04/05 03:27:27;;;;;;;4.93;3.37;;;2.40;95.10;;;;;;10418038;28;20224;-65
2023/04/05 03:32:28;;;;;;;5.13;3.53;;;2.40;95.10;;;;;;10391818;28;20839;-65
2023/04/05 03:37:29;;;;;;;5.00;3.50;;;2.40;95.30;;;;;;10385488;28;20228;-66
2023/04/05 03:42:29;;;;;;;4.90;3.53;;;2.30;95.50;;;;;;10389836;28;20650;-68
2023/04/05 03:47:30;;;;;;;5.33;3.40;;;2.30;95.50;;;;;;10387572;28;20312;-66
2023/04/05 03:52:31;;;;;;;5.47;3.50;;;2.30;95.50;;;;;;10370441;28;20221;-67
2023/04/05 03:57:31;;;;;;;4.57;3.37;;;2.30;95.60;;;;;;10385293;28;20565;-66
2023/04/05 04:02:32;;;;;;;7.57;3.63;;;2.30;95.80;;;;;;10384162;28;20615;-65
2023/04/05 04:07:32;;;;;;;6.50;3.37;;;2.30;96.00;;;;;;10391852;28;20224;-67
2023/04/05 04:12:33;;;;;;;5.17;3.43;;;2.20;96.20;;;;;;10410540;28;20837;-66
2023/04/05 04:17:36;;;;;;;7.53;3.23;;;2.10;96.60;;;;;;10382850;28;20317;-66
2023/04/05 04:22:40;;;;;;;5.00;3.40;;;2.10;97.30;;;;;;10381395;28;20222;-70
2023/04/05 04:27:42;;;;;;;3.97;3.17;;;2.10;97.40;;;;;;10386894;28;20293;-71
2023/04/05 04:32:56;;;;;;;5.00;3.57;;;2.00;97.80;;;;;;10378837;28;20688;-74
2023/04/05 04:37:58;;;;;;;3.97;3.17;;;1.90;98.00;;;;;;10380126;28;20217;-73
2023/04/05 04:42:59;;;;;;;7.30;3.73;;;1.90;98.30;;;;;;10386524;28;20700;-71
2023/04/05 04:48:00;;;;;;;5.07;3.60;;;1.90;98.60;;;;;;10369852;28;20304;-67
2023/04/05 04:53:01;;;;;;;9.13;4.07;;;1.90;98.70;;;;;;10386424;28;20227;-66
2023/04/05 04:58:08;;;;;;;11.83;4.80;;;1.90;99.40;;;;;;10369403;28;20241;-67
2023/04/05 05:03:12;;;;;;;9.20;4.37;;;1.90;99.90;;;;;;10384448;28;20423;-68
2023/04/05 05:08:13;;;;;;;6.60;4.77;;;1.90;99.90;;;;;;10417533;28;20221;-67
2023/04/05 05:13:14;;;;;;;8.90;4.63;;;1.90;99.90;;;;;;10382414;28;20222;-75
2023/04/05 05:18:15;;;;;;;11.80;4.40;;;1.80;99.90;;;;;;10418316;28;20213;-73
2023/04/05 05:23:16;;;;;;;9.87;5.60;;;1.70;99.90;;;;;;10415400;28;20279;-73
2023/04/05 05:28:17;;;;;;;5.93;4.67;;;1.70;99.90;;;;;;10392723;28;20220;-73
2023/04/05 05:33:17;;;;;;;10.83;5.67;;;1.70;99.90;;;;;;10419488;28;20216;-74
2023/04/05 05:38:21;;;;;;;9.87;6.53;;;1.80;99.90;;;;;;10404492;28;20715;-73
2023/04/05 05:43:21;;;;;;;10.27;5.97;;;1.90;99.90;;;;;;10382059;28;20220;-73
2023/04/05 05:48:22;;;;;;;10.83;5.53;;;2.10;99.90;;;;;;10386909;28;20239;-72
2023/04/05 05:53:22;;;;;;;12.63;5.57;;;2.20;99.90;;;;;;10427710;28;20221;-73
2023/04/05 05:58:23;;;;;;;13.30;5.40;;;2.30;99.90;;;;;;10390260;28;20256;-74
2023/04/05 06:03:25;;;;;;;15.17;5.27;;;2.40;99.90;;;;;;10393240;28;20750;-72
2023/04/05 06:08:29;;;;;;;6.87;4.23;;;2.80;99.90;;;;;;10389539;28;20221;-73
2023/04/05 06:13:30;;;;;;;12.40;4.30;;;6.40;98.10;;;;;;10387316;28;20268;-72
2023/04/05 06:18:30;;;;;;;16.27;5.83;;;8.90;90.60;;;;;;10425538;28;20302;-74
2023/04/05 06:23:31;;;;;;;9.77;5.00;;;10.40;81.30;;;;;;10426757;28;20298;-74
2023/04/05 06:28:31;;;;;;;15.90;5.47;;;10.60;75.10;;;;;;10419582;28;20206;-73
2023/04/05 06:33:32;;;;;;;10.20;5.50;;;8.10;82.70;;;;;;10393714;28;20740;-73
2023/04/05 06:38:32;;;;;;;11.73;5.53;;;6.50;89.30;;;;;;10418703;28;20241;-73
2023/04/05 06:48:43;;;;;;;9.80;5.40;;;5.50;93.40;;;;;;10647363;22;20256;-72
2023/04/05 06:53:44;;;;;;;15.20;6.10;;;5.40;93.50;;;;;;10426136;28;20307;-72
2023/04/05 06:58:45;;;;;;;6.40;4.30;;;6.00;93.30;;;;;;10426839;28;20319;-72
2023/04/05 07:03:45;;;;;;;7.97;4.57;;;6.30;90.70;;;;;;10433456;28;20219;-71
2023/04/05 07:08:46;;;;;;;7.27;3.93;;;6.20;90.10;;;;;;10423555;28;20251;-71
2023/04/05 07:13:46;;;;;;;10.73;4.27;;;6.30;89.70;;;;;;10431846;28;20224;-72
2023/04/05 07:18:47;;;;;;;6.43;3.27;;;6.30;89.60;;;;;;10425965;28;20216;-71
2023/04/05 07:23:48;;;;;;;5.67;3.40;;;6.10;87.90;;;;;;10428775;28;20220;-71
2023/04/05 07:28:48;;;;;;;4.40;3.40;;;6.00;87.30;;;;;;10423824;28;20235;-73
2023/04/05 07:33:49;;;;;;;4.20;3.07;;;5.90;88.70;;;;;;10431693;28;20592;-72
2023/04/05 07:38:50;;;;;;;4.47;3.00;;;5.90;88.20;;;;;;10423908;28;20573;-71
2023/04/05 07:43:51;;;;;;;5.87;3.33;;;6.00;88.60;;;;;;10424469;28;20221;-72
2023/04/05 07:48:52;;;;;;;5.00;3.10;;;6.40;86.30;;;;;;10419976;28;20228;-71
2023/04/05 07:53:53;;;;;;;9.30;3.07;;;7.10;85.70;;;;;;10428872;28;20270;-72
2023/04/05 07:58:54;;;;;;;6.10;2.80;;;9.90;78.50;;;;;;10424279;28;20223;-72
2023/04/05 08:03:57;;;;;;;4.20;2.60;;;13.00;61.00;;;;;;10426236;28;20307;-71
2023/04/05 08:08:58;;;;;;;3.33;2.43;;;15.20;52.70;;;;;;10428785;28;20231;-71
2023/04/05 08:13:59;;;;;;;3.33;2.50;;;17.10;47.90;;;;;;10425242;28;20232;-72
2023/04/05 08:18:59;;;;;;;4.93;2.90;;;16.60;44.80;;;;;;10427330;28;20660;-72
2023/04/05 08:24:00;;;;;;;4.10;2.70;;;17.50;43.30;;;;;;10417808;28;20239;-71
2023/04/05 08:29:01;;;;;;;5.17;2.57;;;18.10;42.60;;;;;;10425085;28;20224;-71
2023/04/05 08:34:01;;;;;;;3.87;2.60;;;19.60;38.10;;;;;;10429525;28;20227;-73
2023/04/05 08:39:02;;;;;;;3.87;2.43;;;18.20;39.90;;;;;;10426348;28;20212;-72
2023/04/05 08:44:04;;;;;;;3.97;2.70;;;19.20;37.60;;;;;;10423723;28;20304;-72
2023/04/05 08:49:06;;;;;;;2.77;2.43;;;19.30;36.30;;;;;;10402464;28;20226;-71
2023/04/05 08:54:07;;;;;;;2.87;2.27;;;20.90;36.20;;;;;;10429909;28;20214;-71
2023/04/05 08:59:14;;;;;;;4.20;2.70;;;21.30;33.80;;;;;;10429413;28;20226;-73
2023/04/05 09:04:23;;;;;;;4.87;2.90;;;21.60;32.70;;;;;;10430078;28;20239;-72
2023/04/05 09:09:24;;;;;;;3.73;2.80;;;21.80;32.20;;;;;;10433275;28;20735;-71
2023/04/05 09:14:26;;;;;;;4.10;2.73;;;21.20;33.00;;;;;;10428520;28;20629;-71
2023/04/05 09:19:27;;;;;;;4.20;2.60;;;20.10;32.70;;;;;;10430114;28;20305;-72
2023/04/05 09:24:32;;;;;;;2.93;2.43;;;20.50;34.80;;;;;;10433872;28;20223;-72
2023/04/05 09:29:33;;;;;;;4.53;2.53;;;23.60;28.70;;;;;;10424036;28;20714;-71
2023/04/05 09:34:38;;;;;;;5.07;2.47;;;22.10;30.70;;;;;;10427201;28;20235;-72
2023/04/05 09:39:38;;;;;;;4.40;2.60;;;24.00;27.90;;;;;;10420111;28;20217;-72
2023/04/05 09:44:54;;;;;;;2.67;2.20;;;21.70;29.30;;;;;;10428098;28;20234;-71
2023/04/05 09:49:55;;;;;;;6.83;2.93;;;22.90;29.10;;;;;;10415664;28;20215;-71
2023/04/05 09:54:58;;;;;;;4.70;2.50;;;24.90;27.10;;;;;;10429541;28;20220;-73
2023/04/05 09:59:58;;;;;;;5.33;2.70;;;22.40;28.80;;;;;;10431772;28;20232;-73
2023/04/05 10:05:10;;;;;;;2.90;2.40;;;23.10;29.10;;;;;;10427735;28;20717;-71
2023/04/05 10:10:15;;;;;;;5.17;2.87;;;23.80;27.40;;;;;;10431098;28;20341;-71
2023/04/05 10:15:17;;;;;;;5.03;2.77;;;25.10;26.40;;;;;;10429077;28;20281;-71
2023/04/05 10:20:20;;;;;;;3.53;2.40;;;23.20;27.20;;;;;;10435877;28;20192;-72
2023/04/05 10:25:47;;;;;;;3.30;2.60;;;22.30;28.10;;;;;;10431995;28;20300;-73
2023/04/05 10:30:50;;;;;;;3.17;2.80;;;23.60;27.20;;;;;;10414561;28;20224;-71
2023/04/05 10:36:30;;;;;;;4.57;2.67;;;26.00;25.90;;;;;;10432465;28;20254;-72
2023/04/05 10:41:35;;;;;;;9.03;2.93;;;29.20;24.00;;;;;;10424737;28;20878;-70
2023/04/05 10:46:39;;;;;;;5.13;2.60;;;26.20;24.20;;;;;;10400542;28;20318;-72
2023/04/05 10:51:42;;;;;;;3.00;2.43;;;24.90;25.90;;;;;;10434139;28;20227;-72
2023/04/05 10:56:44;;;;;;;2.90;2.50;;;25.70;24.40;;;;;;10411201;28;20358;-72
2023/04/05 11:01:46;;;;;;;3.33;2.97;;;27.00;24.90;;;;;;10430094;28;20251;-71
2023/04/05 11:06:49;;;;;;;3.83;2.50;;;26.40;23.40;;;;;;10425474;28;20227;-73
2023/04/05 11:11:51;;;;;;;8.30;2.53;;;27.60;23.70;;;;;;10431861;28;20217;-71
2023/04/05 11:16:58;;;;;;;8.10;2.90;;;29.30;22.70;;;;;;10424339;28;20311;-72
2023/04/05 11:22:01;;;;;;;7.13;3.00;;;25.50;24.00;;;;;;10418938;28;20763;-71
2023/04/05 11:27:08;;;;;;;5.03;2.50;;;21.00;28.90;;;;;;10429946;28;20224;-72
2023/04/05 11:32:11;;;;;;;5.10;2.80;;;17.50;33.70;;;;;;10432423;28;20219;-72
2023/04/05 11:37:14;;;;;;;6.53;2.43;;;14.70;36.30;;;;;;10428075;28;20232;-71
2023/04/05 11:42:17;;;;;;;3.73;2.70;;;14.20;38.70;;;;;;10428014;28;20751;-71
2023/04/05 11:47:21;;;;;;;4.17;2.83;;;14.00;39.50;;;;;;10424921;28;20224;-71
2023/04/05 11:52:22;;;;;;;3.77;2.90;;;13.90;39.60;;;;;;10424992;28;20317;-72
2023/04/05 11:57:23;;;;;;;5.20;2.83;;;13.30;39.50;;;;;;10425017;28;20219;-73
2023/04/05 12:02:25;;;;;;;4.73;2.57;;;13.20;40.20;;;;;;10427929;28;20220;-71
2023/04/05 12:07:35;;;;;;;4.00;2.53;;;12.70;39.50;;;;;;10431375;28;20617;-72
2023/04/05 12:12:41;;;;;;;3.13;2.50;;;12.80;40.30;;;;;;10430766;28;20227;-73
2023/04/05 12:17:46;;;;;;;4.17;2.83;;;12.80;39.80;;;;;;10423586;28;20280;-73
2023/04/05 12:22:48;;;;;;;47.50;6.30;;;12.90;41.20;;;;;;10404245;28;20605;-71
2023/04/05 12:27:49;;;;;;;4.53;2.50;;;13.20;42.10;;;;;;10444903;28;20218;-73
2023/04/05 12:32:51;;;;;;;3.70;2.97;;;13.40;41.10;;;;;;10437794;28;20216;-72
2023/04/05 12:37:52;;;;;;;5.40;2.50;;;13.00;40.40;;;;;;10440642;28;20211;-71
2023/04/05 12:43:00;;;;;;;4.43;2.90;;;12.90;41.60;;;;;;10436235;28;20270;-72
2023/04/05 12:48:01;;;;;;;5.60;2.90;;;12.70;41.80;;;;;;10433656;28;20224;-73
2023/04/05 12:53:06;;;;;;;4.37;2.40;;;12.50;41.40;;;;;;10430343;28;20228;-72
2023/04/05 12:58:06;;;;;;;3.50;2.40;;;12.60;41.50;;;;;;10437568;28;20215;-71
2023/04/05 13:03:19;;;;;;;4.17;2.97;;;12.70;40.10;;;;;;10440369;28;20229;-72
2023/04/05 13:08:21;;;;;;;3.70;2.90;;;12.40;38.80;;;;;;10436538;28;20224;-72
2023/04/05 13:13:21;;;;;;;3.60;2.60;;;12.40;40.10;;;;;;10440927;28;20312;-72
2023/04/05 13:18:22;;;;;;;16.63;3.13;;;12.30;41.00;;;;;;10438570;28;20295;-71
2023/04/05 13:23:23;;;;;;;3.87;2.27;;;12.50;41.40;;;;;;10439791;28;20386;-72
2023/04/05 13:28:24;;;;;;;8.03;2.80;;;12.50;40.10;;;;;;10443719;28;20280;-72
2023/04/05 13:33:25;;;;;;;5.13;2.87;;;12.50;40.40;;;;;;10437997;28;20239;-71
2023/04/05 13:38:25;;;;;;;3.13;2.67;;;12.40;41.10;;;;;;10437709;28;20231;-71
2023/04/05 13:43:26;;;;;;;4.57;2.73;;;12.50;42.00;;;;;;10433640;28;20246;-71
2023/04/05 13:48:27;;;;;;;3.13;2.50;;;12.40;41.10;;;;;;10439308;28;20454;-72
2023/04/05 13:53:28;;;;;;;4.23;2.60;;;12.10;41.30;;;;;;10432538;28;20238;-72
2023/04/05 13:58:28;;;;;;;4.63;2.93;;;12.00;40.70;;;;;;10429988;28;20216;-73
2023/04/05 14:03:29;;;;;;;5.77;3.03;;;12.00;41.00;;;;;;10431429;28;20220;-71
2023/04/05 14:08:30;;;;;;;5.50;2.50;;;11.90;41.90;;;;;;10429574;28;20303;-73
2023/04/05 14:13:30;;;;;;;5.27;2.70;;;11.70;41.30;;;;;;10426306;28;20212;-71
2023/04/05 14:18:33;;;;;;;4.60;2.67;;;11.80;42.00;;;;;;10421842;28;20255;-72
2023/04/05 14:23:34;;;;;;;4.70;2.77;;;12.10;41.10;;;;;;10424852;28;20234;-71
2023/04/05 14:28:35;;;;;;;3.80;2.70;;;12.10;41.10;;;;;;10420097;28;20220;-72
2023/04/05 14:33:35;;;;;;;5.07;2.47;;;12.00;41.00;;;;;;10421368;28;20223;-69
2023/04/05 14:38:36;;;;;;;4.33;2.43;;;12.00;41.10;;;;;;10436468;28;20866;-67
2023/04/05 14:43:37;;;;;;;5.73;3.10;;;12.00;40.30;;;;;;10431277;28;20315;-71
2023/04/05 14:48:38;;;;;;;3.03;2.63;;;11.80;39.90;;;;;;10417317;28;20224;-66
2023/04/05 14:53:38;;;;;;;4.37;2.80;;;11.80;40.10;;;;;;10420777;28;20223;-66
2023/04/05 14:58:39;;;;;;;6.10;2.40;;;11.70;39.90;;;;;;10425002;28;20222;-69
2023/04/05 15:03:40;;;;;;;2.73;2.03;;;11.60;39.40;;;;;;10412437;28;20224;-72
2023/04/05 15:08:41;;;;;;;3.93;2.57;;;11.60;39.00;;;;;;10427344;28;20238;-71
2023/04/05 15:13:42;;;;;;;2.23;1.90;;;11.50;37.80;;;;;;10422293;28;20219;-70
2023/04/05 15:18:42;;;;;;;4.73;3.13;;;11.60;38.70;;;;;;10431185;28;20223;-71
2023/04/05 15:23:43;;;;;;;3.13;2.70;;;11.70;40.50;;;;;;10415527;28;20311;-71
2023/04/05 15:28:43;;;;;;;2.93;2.60;;;11.70;40.10;;;;;;10421204;28;20209;-72
2023/04/05 15:33:44;;;;;;;3.17;2.50;;;11.70;40.80;;;;;;10428915;28;20217;-71
2023/04/05 15:38:45;;;;;;;6.73;3.13;;;11.80;41.80;;;;;;10429595;28;20223;-71
2023/04/05 15:43:46;;;;;;;3.40;2.77;;;11.60;40.40;;;;;;10424199;28;20240;-71
2023/04/05 15:48:47;;;;;;;2.93;2.57;;;11.40;40.60;;;;;;10429836;28;20553;-71
2023/04/05 15:53:49;;;;;;;2.83;2.57;;;11.40;40.30;;;;;;10424182;28;20563;-71
2023/04/05 15:58:50;;;;;;;3.53;2.50;;;11.40;41.20;;;;;;10430667;28;20679;-71
2023/04/05 16:03:51;;;;;;;5.00;2.67;;;11.30;41.30;;;;;;10420744;28;20224;-71
2023/04/05 16:08:52;;;;;;;3.50;2.40;;;11.20;41.10;;;;;;10430444;28;20224;-71
2023/04/05 16:13:53;;;;;;;4.13;2.47;;;11.00;41.60;;;;;;10419873;28;20220;-71
2023/04/05 16:18:53;;;;;;;5.30;3.23;;;11.00;42.00;;;;;;10427701;28;20694;-72
2023/04/05 16:23:55;;;;;;;7.53;2.70;;;11.00;42.00;;;;;;10416456;28;20224;-72
2023/04/05 16:28:56;;;;;;;4.37;2.80;;;10.80;41.70;;;;;;10422356;28;20569;-70
2023/04/05 16:33:57;;;;;;;4.73;2.80;;;10.60;42.40;;;;;;10429507;28;20219;-71
2023/04/05 16:38:57;;;;;;;3.67;2.70;;;10.60;43.50;;;;;;10424969;28;20227;-71
2023/04/05 16:43:58;;;;;;;3.77;2.60;;;10.60;42.90;;;;;;10422353;28;20643;-70
2023/04/05 16:48:59;;;;;;;4.83;3.00;;;10.50;42.50;;;;;;10428859;28;20330;-70
2023/04/05 16:54:00;;;;;;;4.03;3.00;;;10.50;43.30;;;;;;10423977;28;20301;-72
2023/04/05 16:59:01;;;;;;;5.93;3.17;;;10.40;42.30;;;;;;10426820;28;20216;-72
2023/04/05 17:04:02;;;;;;;3.77;3.10;;;10.30;43.30;;;;;;10421536;28;20339;-72
2023/04/05 17:09:03;;;;;;;4.77;2.50;;;10.20;43.30;;;;;;10425423;28;20281;-70
2023/04/05 17:14:05;;;;;;;5.53;2.70;;;10.10;43.40;;;;;;10425790;28;20223;-71
2023/04/05 17:19:07;;;;;;;5.53;3.03;;;9.90;44.00;;;;;;10435383;28;20228;-72
2023/04/05 17:24:07;;;;;;;6.23;2.90;;;9.90;43.50;;;;;;10433174;28;20242;-70
2023/04/05 17:29:08;;;;;;;2.80;2.50;;;9.80;43.80;;;;;;10434379;28;20778;-70
2023/04/05 17:34:12;;;;;;;4.90;3.00;;;9.60;44.10;;;;;;10437639;28;20824;-72
2023/04/05 17:39:14;;;;;;;5.57;2.70;;;9.50;44.20;;;;;;10423391;28;20225;-72
2023/04/05 17:44:14;;;;;;;4.73;2.90;;;9.50;43.30;;;;;;10433454;28;20251;-71
2023/04/05 17:49:15;;;;;;;3.03;2.70;;;9.40;43.60;;;;;;10431073;28;20252;-72
2023/04/05 17:54:16;;;;;;;3.30;2.70;;;9.30;45.00;;;;;;10433355;28;20318;-71
2023/04/05 17:59:16;;;;;;;4.57;2.60;;;9.00;45.70;;;;;;10432638;28;20311;-71
2023/04/05 18:04:17;;;;;;;3.03;2.60;;;8.80;45.50;;;;;;10427874;28;20697;-70
2023/04/05 18:09:17;;;;;;;5.60;2.60;;;8.80;46.20;;;;;;10430230;28;20224;-71
2023/04/05 18:14:18;;;;;;;3.17;2.77;;;8.70;46.90;;;;;;10422626;28;20227;-71
2023/04/05 18:19:19;;;;;;;3.53;2.90;;;8.60;47.80;;;;;;10431419;28;20866;-71
2023/04/05 18:24:19;;;;;;;8.93;3.60;;;8.50;48.30;;;;;;10427178;28;20599;-70
2023/04/05 18:29:27;;;;;;;6.87;3.67;;;8.30;49.00;;;;;;10430895;28;20242;-71
2023/04/05 18:34:27;;;;;;;4.70;3.47;;;8.20;49.70;;;;;;10428191;28;20229;-69
2023/04/05 18:39:28;;;;;;;6.80;3.83;;;8.10;49.30;;;;;;10425760;28;20213;-70
2023/04/05 18:44:29;;;;;;;7.53;4.17;;;8.10;49.70;;;;;;10433351;28;20773;-70
2023/04/05 18:49:30;;;;;;;5.13;3.90;;;7.90;53.00;;;;;;10426726;28;20232;-70
2023/04/05 18:54:30;;;;;;;6.43;3.27;;;7.70;55.60;;;;;;10433040;28;20243;-72
2023/04/05 18:59:31;;;;;;;3.67;2.73;;;7.50;56.70;;;;;;10424289;28;20294;-70
2023/04/05 19:04:32;;;;;;;4.03;2.50;;;7.30;57.00;;;;;;10430967;28;20646;-70
2023/04/05 19:09:33;;;;;;;5.40;3.40;;;7.20;57.70;;;;;;10420990;28;20216;-70
2023/04/05 19:14:33;;;;;;;5.37;3.93;;;7.10;57.90;;;;;;10430603;28;20220;-71
2023/04/05 19:19:34;;;;;;;5.73;4.30;;;7.00;59.10;;;;;;10431860;28;20259;-70
2023/04/05 19:24:35;;;;;;;7.47;4.20;;;6.90;59.70;;;;;;10426104;28;20235;-70
2023/04/05 19:29:35;;;;;;;5.10;4.00;;;6.80;60.50;;;;;;10430858;28;20556;-72
2023/04/05 19:34:37;;;;;;;4.40;3.30;;;6.60;64.60;;;;;;10422221;28;20251;-71
2023/04/05 19:39:38;;;;;;;6.00;3.50;;;6.60;65.70;;;;;;10430072;28;20294;-70
2023/04/05 19:44:50;;;;;;;5.43;3.47;;;6.60;65.80;;;;;;10423419;28;20324;-70
2023/04/05 19:49:54;;;;;;;9.50;5.43;;;6.40;65.90;;;;;;10400584;28;20244;-70
2023/04/05 19:54:55;;;;;;;6.47;4.50;;;6.40;66.40;;;;;;10431128;28;20223;-72
2023/04/05 19:59:55;;;;;;;6.80;4.73;;;6.30;67.10;;;;;;10425885;28;20229;-71
2023/04/05 20:04:56;;;;;;;7.00;4.97;;;6.20;67.80;;;;;;10422370;28;20226;-70
2023/04/05 20:09:57;;;;;;;7.47;5.13;;;6.10;67.00;;;;;;10421286;28;20216;-71
2023/04/05 20:14:57;;;;;;;6.20;4.13;;;6.10;67.90;;;;;;10419741;28;20250;-70
2023/04/05 20:20:00;;;;;;;9.17;4.67;;;6.00;69.30;;;;;;10425081;28;20298;-71
2023/04/05 20:25:30;;;;;;;10.37;5.00;;;6.00;71.20;;;;;;10423372;28;20228;-72
2023/04/05 20:30:31;;;;;;;6.60;5.13;;;5.90;71.00;;;;;;10416041;28;20221;-69
2023/04/05 20:35:35;;;;;;;8.27;5.70;;;5.80;70.60;;;;;;10425565;28;20602;-70
2023/04/05 20:40:35;;;;;;;8.87;5.63;;;5.70;72.10;;;;;;10424913;28;20274;-70
2023/04/05 20:45:36;;;;;;;10.63;5.63;;;5.60;73.80;;;;;;10426770;28;20266;-71
2023/04/05 20:50:37;;;;;;;6.87;4.73;;;5.60;74.00;;;;;;10432869;28;20582;-70
2023/04/05 20:55:37;;;;;;;8.63;5.40;;;5.50;70.80;;;;;;10430350;28;20274;-71
2023/04/05 21:00:40;;;;;;;6.17;4.40;;;5.60;70.10;;;;;;10438282;28;20262;-69
2023/04/05 21:05:41;;;;;;;8.57;4.97;;;5.60;72.30;;;;;;10429378;28;20263;-70
2023/04/05 21:10:41;;;;;;;6.47;4.80;;;5.50;73.20;;;;;;10437213;28;20252;-72
2023/04/05 21:15:42;;;;;;;9.67;5.27;;;5.40;74.60;;;;;;10436889;28;20219;-71
2023/04/05 21:20:49;;;;;;;8.03;5.23;;;5.40;76.50;;;;;;10430346;28;20750;-71
2023/04/05 21:25:49;;;;;;;7.47;5.13;;;5.30;77.60;;;;;;10428937;28;20226;-70
2023/04/05 21:30:51;;;;;;;7.10;4.37;;;5.20;77.80;;;;;;10430012;28;20598;-70
2023/04/05 21:35:51;;;;;;;9.83;4.80;;;5.20;79.00;;;;;;10429465;28;20220;-71
2023/04/05 21:40:54;;;;;;;6.87;4.60;;;5.20;78.90;;;;;;10422100;28;20354;-71
2023/04/05 21:45:54;;;;;;;7.03;5.20;;;5.10;78.50;;;;;;10435739;28;20235;-69
2023/04/05 21:50:55;;;;;;;6.53;4.93;;;5.10;80.20;;;;;;10429659;28;20228;-70
2023/04/05 21:55:55;;;;;;;6.87;4.47;;;5.20;78.40;;;;;;10434727;28;20215;-70
2023/04/05 22:00:58;;;;;;;5.67;4.37;;;5.20;79.00;;;;;;10422662;28;20225;-70
2023/04/05 22:06:00;;;;;;;7.37;5.13;;;5.10;80.20;;;;;;10434491;28;20349;-69
2023/04/05 22:11:01;;;;;;;7.37;4.70;;;5.20;82.20;;;;;;10428646;28;20216;-70
2023/04/05 22:16:01;;;;;;;7.73;4.90;;;5.30;82.30;;;;;;10429905;28;20291;-71
2023/04/05 22:21:02;;;;;;;10.57;5.20;;;5.30;83.70;;;;;;10426603;28;20220;-69
2023/04/05 22:26:03;;;;;;;6.60;4.30;;;5.30;81.50;;;;;;10421753;28;20727;-70
2023/04/05 22:31:03;;;;;;;6.23;4.80;;;5.30;80.10;;;;;;10430193;28;20614;-69
2023/04/05 22:36:04;;;;;;;7.23;5.00;;;5.30;82.90;;;;;;10432375;28;20278;-70
2023/04/05 22:41:05;;;;;;;7.90;4.77;;;5.20;84.60;;;;;;10427367;28;20247;-69
2023/04/05 22:46:06;;;;;;;6.97;4.70;;;5.20;85.20;;;;;;10426637;28;20318;-71
2023/04/05 22:51:07;;;;;;;6.43;4.53;;;5.10;86.30;;;;;;10425290;28;20828;-69
2023/04/05 22:56:08;;;;;;;7.33;4.67;;;5.10;87.20;;;;;;10430463;28;20224;-71
2023/04/05 23:01:09;;;;;;;8.73;5.07;;;5.00;88.10;;;;;;10422049;28;20216;-70
2023/04/05 23:06:10;;;;;;;6.40;4.87;;;4.90;89.60;;;;;;10426245;28;20228;-70
2023/04/05 23:11:10;;;;;;;6.90;4.90;;;4.80;90.30;;;;;;10425399;28;20223;-70
2023/04/05 23:16:11;;;;;;;6.80;4.43;;;4.70;91.20;;;;;;10433995;28;20676;-70
2023/04/05 23:21:11;;;;;;;6.93;4.77;;;4.60;91.40;;;;;;10429162;28;20224;-69
2023/04/05 23:26:12;;;;;;;7.47;4.83;;;4.50;91.40;;;;;;10429424;28;20224;-69
2023/04/05 23:31:13;;;;;;;8.17;5.20;;;4.40;92.00;;;;;;10433821;28;20561;-69
2023/04/05 23:36:13;;;;;;;6.70;4.30;;;4.30;92.30;;;;;;10424765;28;20230;-71
2023/04/05 23:41:14;;;;;;;5.63;3.90;;;4.20;92.00;;;;;;10429120;28;20657;-70
2023/04/05 23:46:14;;;;;;;5.90;4.30;;;4.10;91.30;;;;;;10424764;28;20798;-70
2023/04/05 23:51:15;;;;;;;5.80;4.00;;;3.90;91.10;;;;;;10427874;28;20235;-69
2023/04/05 23:56:16;;;;;;;5.63;3.70;;;3.80;91.20;;;;;;10428135;28;20246;-70
